Time;durP1;ratioP1;P1;durP2;ratioP2;P2;SDS_P1;SDS_P2;PMS_P1;PMS_P2;Temp;Humidity;BMP_temperature;BMP_pressure;BME280_temperature;BME280_humidity;BME280_pressure;Samples;Min_cycle;Max_cycle;Signal;HPM_P1;HPM_P2
2023/04/06 00:01:16;;;;;;;8.70;7.82;;;;;;;-0.21;66.62;98555.88;4994163;28;20472;-75
2023/04/06 00:03:42;;;;;;;9.10;8.18;;;;;;;-0.13;66.21;98558.53;4993619;28;20037;-75
2023/04/06 00:06:07;;;;;;;10.25;8.82;;;;;;;-0.31;66.92;98557.91;5010237;28;20021;-75
2023/04/06 00:08:33;;;;;;;10.13;8.55;;;;;;;-0.29;67.58;98557.72;4994057;28;20030;-76
2023/04/06 00:10:58;;;;;;;9.90;9.00;;;;;;;-0.26;67.58;98560.03;4993853;28;20055;-76
2023/04/06 00:13:24;;;;;;;9.15;8.25;;;;;;;-0.41;67.33;98549.28;5010130;28;20062;-76
2023/04/06 00:15:49;;;;;;;9.80;8.38;;;;;;;-0.48;67.70;98553.59;4993981;28;20088;-76
2023/04/06 00:18:15;;;;;;;9.23;8.30;;;;;;;-0.48;67.49;98548.31;4993901;28;20084;-76
2023/04/06 00:20:40;;;;;;;11.77;10.10;;;;;;;-0.58;67.71;98549.47;5010269;28;20065;-76
2023/04/06 00:23:05;;;;;;;11.40;10.20;;;;;;;-0.53;66.90;98553.25;4993366;28;20399;-77
2023/04/06 00:25:31;;;;;;;12.02;10.77;;;;;;;-0.39;65.64;98549.94;5010290;28;20108;-77
2023/04/06 00:27:56;;;;;;;12.15;10.85;;;;;;;-0.36;65.90;98546.16;5010728;28;20108;-75
2023/04/06 00:30:22;;;;;;;11.18;10.07;;;;;;;-0.31;65.87;98549.13;5010302;28;20018;-76
2023/04/06 00:32:48;;;;;;;11.07;9.98;;;;;;;-0.41;66.75;98551.94;5010160;28;20030;-75
2023/04/06 00:35:14;;;;;;;10.18;9.10;;;;;;;-0.38;66.24;98554.25;5009673;28;20026;-75
2023/04/06 00:37:40;;;;;;;9.57;8.60;;;;;;;-0.23;65.09;98549.94;4993807;28;20069;-76
2023/04/06 00:40:06;;;;;;;11.63;8.18;;;;;;;-0.30;64.93;98551.59;5012567;28;20056;-74
2023/04/06 00:42:32;;;;;;;10.02;8.80;;;;;;;-0.36;65.33;98549.63;4997289;28;20111;-75
2023/04/06 00:44:59;;;;;;;9.32;8.35;;;;;;;-0.36;65.89;98549.63;4996906;28;20053;-75
2023/04/06 00:47:25;;;;;;;10.13;8.82;;;;;;;-0.32;65.81;98550.94;5013607;28;20057;-75
2023/04/06 00:49:51;;;;;;;9.25;8.35;;;;;;;-0.48;67.02;98535.09;4997307;28;20026;-75
2023/04/06 00:52:17;;;;;;;10.60;8.68;;;;;;;-0.55;66.93;98544.66;4997261;28;20034;-74
2023/04/06 00:54:45;;;;;;;9.52;8.57;;;;;;;-0.63;67.26;98541.22;4997098;28;20022;-75
2023/04/06 00:57:12;;;;;;;9.93;8.88;;;;;;;-0.59;66.51;98538.06;4997425;28;20030;-75
2023/04/06 00:59:39;;;;;;;9.48;8.63;;;;;;;-0.57;67.07;98536.09;4997244;28;20117;-74
2023/04/06 01:02:07;;;;;;;12.40;11.35;;;;;;;-0.63;66.83;98536.72;4997152;28;20041;-74
2023/04/06 01:04:39;;;;;;;10.88;9.85;;;;;;;-0.51;66.78;98530.13;4997573;28;20026;-75
2023/04/06 01:07:09;;;;;;;10.63;9.52;;;;;;;-0.59;67.73;98527.50;4997400;28;20095;-74
2023/04/06 01:09:42;;;;;;;10.82;9.73;;;;;;;-0.68;68.24;98525.84;4997875;28;20145;-74
2023/04/06 01:12:14;;;;;;;10.18;9.18;;;;;;;-0.97;68.25;98522.84;4997687;28;20037;-74
2023/04/06 01:14:40;;;;;;;10.43;9.43;;;;;;;-0.88;68.81;98527.97;5012963;28;20033;-74
2023/04/06 01:17:06;;;;;;;10.70;9.70;;;;;;;-0.99;68.72;98519.53;4996700;28;20022;-74
2023/04/06 01:19:32;;;;;;;11.48;9.35;;;;;;;-0.83;67.98;98530.97;5013021;28;20112;-74
2023/04/06 01:21:58;;;;;;;11.02;9.48;;;;;;;-0.82;68.44;98522.03;5012634;28;20112;-74
2023/04/06 01:24:29;;;;;;;11.10;9.18;;;;;;;-0.81;68.28;98526.31;5012953;28;20053;-74
2023/04/06 01:27:02;;;;;;;10.32;9.40;;;;;;;-0.96;68.44;98519.22;4984592;28;20040;-75
2023/04/06 01:29:37;;;;;;;10.65;9.57;;;;;;;-0.79;68.32;98515.56;5012840;28;20038;-74
2023/04/06 01:32:06;;;;;;;10.93;9.85;;;;;;;-0.90;68.00;98518.56;4996715;28;20034;-73
2023/04/06 01:34:37;;;;;;;10.73;9.63;;;;;;;-0.91;68.40;98511.63;4996812;28;20384;-75
2023/04/06 01:37:05;;;;;;;11.68;9.93;;;;;;;-1.02;69.01;98515.41;4996619;28;20116;-76
2023/04/06 01:39:30;;;;;;;10.93;9.82;;;;;;;-0.98;68.47;98513.28;4996402;28;20029;-74
2023/04/06 01:41:57;;;;;;;11.02;9.93;;;;;;;-1.31;70.24;98519.50;4996384;28;20065;-74
2023/04/06 01:44:24;;;;;;;13.98;10.32;;;;;;;-1.07;69.04;98516.88;4995958;28;20040;-75
2023/04/06 01:47:00;;;;;;;11.27;10.15;;;;;;;-1.10;68.77;98506.66;4997627;28;20041;-75
2023/04/06 01:49:26;;;;;;;11.18;10.02;;;;;;;-1.03;68.73;98507.66;5012333;28;20122;-76
2023/04/06 01:51:54;;;;;;;11.20;10.10;;;;;;;-1.04;68.57;98511.28;4995849;28;20033;-76
2023/04/06 01:54:20;;;;;;;10.90;9.65;;;;;;;-1.04;69.01;98509.47;4995795;28;20033;-75
2023/04/06 01:56:52;;;;;;;10.75;9.65;;;;;;;-1.19;69.22;98510.28;5012464;28;20040;-76
2023/04/06 01:59:41;;;;;;;11.05;9.95;;;;;;;-1.18;69.24;98510.09;4994373;28;20041;-76
2023/04/06 02:02:14;;;;;;;11.90;10.60;;;;;;;-1.20;69.10;98503.31;5013184;28;20060;-76
2023/04/06 02:04:43;;;;;;;11.02;9.93;;;;;;;-1.17;69.04;98501.19;4996025;28;20113;-76
2023/04/06 02:07:12;;;;;;;10.52;9.50;;;;;;;-1.21;68.61;98504.34;5009736;28;20136;-75
2023/04/06 02:09:37;;;;;;;12.35;10.13;;;;;;;-1.28;69.02;98498.03;5012032;28;20456;-75
2023/04/06 02:12:07;;;;;;;10.80;9.18;;;;;;;-1.25;68.59;98497.69;4996190;28;20044;-75
2023/04/06 02:14:33;;;;;;;11.18;9.55;;;;;;;-1.16;68.68;98502.00;4995592;28;20036;-74
2023/04/06 02:16:59;;;;;;;10.55;9.48;;;;;;;-1.30;69.06;98500.00;4995566;28;20029;-75
2023/04/06 02:19:25;;;;;;;12.63;9.48;;;;;;;-1.38;69.52;98505.28;4995617;28;20037;-74
2023/04/06 02:21:51;;;;;;;10.05;9.15;;;;;;;-1.25;68.47;98502.97;4992216;28;20419;-75
2023/04/06 02:24:16;;;;;;;12.35;9.45;;;;;;;-1.26;69.12;98499.50;4995131;28;20440;-74
2023/04/06 02:26:42;;;;;;;10.30;9.30;;;;;;;-1.35;69.31;98503.13;5011573;28;20026;-74
2023/04/06 02:29:08;;;;;;;10.10;9.13;;;;;;;-1.42;69.59;98507.41;4995484;28;20376;-74
2023/04/06 02:31:33;;;;;;;10.90;9.90;;;;;;;-1.36;68.94;98505.94;5012958;28;20106;-74
2023/04/06 02:34:00;;;;;;;11.07;9.63;;;;;;;-1.40;69.02;98500.97;5011290;28;20515;-74
2023/04/06 02:36:28;;;;;;;10.00;9.05;;;;;;;-1.30;69.67;98497.34;4995521;28;20036;-74
2023/04/06 02:38:54;;;;;;;10.55;9.55;;;;;;;-1.34;68.75;98503.97;4995119;28;20045;-74
2023/04/06 02:41:19;;;;;;;10.77;9.68;;;;;;;-1.55;69.40;98494.69;4995133;28;20121;-73
2023/04/06 02:43:45;;;;;;;10.98;9.90;;;;;;;-1.55;69.01;98492.03;4994821;28;20037;-73
2023/04/06 02:46:21;;;;;;;10.65;9.60;;;;;;;-1.49;69.05;98501.94;5011198;28;20374;-73
2023/04/06 02:48:47;;;;;;;11.23;10.02;;;;;;;-1.42;68.93;98502.94;4995024;28;20041;-74
2023/04/06 02:51:13;;;;;;;10.13;9.13;;;;;;;-1.45;69.38;98497.19;5011032;28;20472;-74
2023/04/06 02:53:41;;;;;;;11.52;10.43;;;;;;;-1.54;69.18;98488.41;5011119;28;20033;-74
2023/04/06 02:56:06;;;;;;;10.00;9.10;;;;;;;-1.58;69.15;98492.34;5011297;28;20595;-74
2023/04/06 02:58:41;;;;;;;10.35;8.98;;;;;;;-1.52;69.32;98491.69;4996208;28;20030;-74
2023/04/06 03:01:07;;;;;;;11.13;10.05;;;;;;;-1.57;69.78;98496.66;4994920;28;20499;-74
2023/04/06 03:03:34;;;;;;;11.52;9.77;;;;;;;-1.61;69.75;98497.16;4994673;28;20018;-74
2023/04/06 03:06:01;;;;;;;11.40;10.25;;;;;;;-1.74;70.04;98502.88;4994909;28;20034;-74
2023/04/06 03:08:29;;;;;;;10.50;9.50;;;;;;;-1.62;69.77;98504.22;4995006;28;20030;-74
2023/04/06 03:10:55;;;;;;;11.57;10.38;;;;;;;-1.60;70.00;98504.91;5010960;28;20033;-75
2023/04/06 03:13:24;;;;;;;11.48;10.27;;;;;;;-1.71;70.17;98496.44;5002102;28;20465;-74
2023/04/06 03:15:52;;;;;;;11.25;10.05;;;;;;;-1.69;70.27;98500.56;4994935;28;20030;-74
2023/04/06 03:18:24;;;;;;;11.82;10.63;;;;;;;-1.78;70.47;98501.53;4994645;28;20030;-74
2023/04/06 03:20:53;;;;;;;11.43;10.23;;;;;;;-1.75;69.94;98501.19;4994705;28;20120;-75
2023/04/06 03:23:20;;;;;;;11.40;10.30;;;;;;;-1.82;70.66;98502.00;4994235;28;20552;-75
2023/04/06 03:25:49;;;;;;;12.05;10.95;;;;;;;-1.85;70.81;98500.53;4994763;28;20033;-75
2023/04/06 03:28:17;;;;;;;11.82;10.60;;;;;;;-1.78;70.55;98495.41;4994808;28;20088;-74
2023/04/06 03:31:04;;;;;;;11.73;10.68;;;;;;;-1.81;70.80;98501.84;5010613;28;20041;-74
2023/04/06 03:33:55;;;;;;;12.00;10.82;;;;;;;-1.79;70.91;98505.16;5008626;28;20465;-74
2023/04/06 03:36:26;;;;;;;16.02;14.40;;;;;;;-1.79;70.78;98497.22;5010692;28;20052;-74
2023/04/06 03:38:56;;;;;;;12.90;11.60;;;;;;;-1.81;70.34;98490.47;4994786;28;20385;-75
2023/04/06 03:41:21;;;;;;;11.50;10.23;;;;;;;-1.79;69.97;98494.59;4994153;28;20060;-75
2023/04/06 03:44:01;;;;;;;12.05;10.85;;;;;;;-1.81;70.31;98501.84;4995887;28;20084;-75
2023/04/06 03:46:26;;;;;;;12.13;10.93;;;;;;;-1.78;70.46;98495.41;5010416;28;20042;-75
2023/04/06 03:48:55;;;;;;;11.93;10.82;;;;;;;-1.84;70.64;98494.25;4994547;28;20025;-75
2023/04/06 03:51:22;;;;;;;11.20;10.10;;;;;;;-1.74;69.77;98497.59;4981370;28;20104;-75
2023/04/06 03:53:48;;;;;;;10.70;9.63;;;;;;;-1.83;70.78;98495.06;4993773;28;20479;-74
2023/04/06 03:56:13;;;;;;;10.52;9.52;;;;;;;-1.95;70.99;98494.53;4993981;28;20026;-74
2023/04/06 03:58:39;;;;;;;11.13;10.02;;;;;;;-2.02;71.45;98498.78;4994192;28;20018;-74
2023/04/06 04:01:04;;;;;;;10.52;9.48;;;;;;;-1.76;70.35;98504.00;5010378;28;20038;-74
2023/04/06 04:03:30;;;;;;;11.73;10.30;;;;;;;-1.77;69.49;98497.91;4993826;28;20026;-76
2023/04/06 04:05:55;;;;;;;12.10;10.90;;;;;;;-1.79;70.41;98506.94;4993853;28;20041;-76
2023/04/06 04:08:24;;;;;;;11.23;10.13;;;;;;;-1.85;70.04;98508.44;4993958;28;20026;-75
2023/04/06 04:10:49;;;;;;;11.23;9.52;;;;;;;-1.88;70.60;98506.09;4997504;28;20045;-75
2023/04/06 04:13:15;;;;;;;11.48;10.43;;;;;;;-2.12;71.61;98508.63;4993323;28;20597;-75
2023/04/06 04:15:43;;;;;;;14.75;11.20;;;;;;;-2.16;71.53;98512.56;4997997;28;20060;-76
2023/04/06 04:18:09;;;;;;;13.95;12.18;;;;;;;-2.09;71.58;98503.03;4998034;28;20018;-75
2023/04/06 04:20:34;;;;;;;14.10;11.00;;;;;;;-2.02;71.42;98524.34;4984689;28;20128;-76
2023/04/06 04:23:00;;;;;;;15.38;11.40;;;;;;;-2.11;71.44;98510.28;5003954;28;20037;-76
2023/04/06 04:25:27;;;;;;;13.30;11.20;;;;;;;-2.06;70.77;98521.19;5000967;28;20068;-76
2023/04/06 04:27:52;;;;;;;12.13;10.82;;;;;;;-2.08;71.43;98515.25;4997751;28;20627;-75
2023/04/06 04:30:20;;;;;;;12.15;10.75;;;;;;;-2.07;70.91;98514.25;5020630;22;20116;-76
2023/04/06 04:32:45;;;;;;;12.52;11.15;;;;;;;-2.14;71.41;98506.16;4993331;28;20547;-76
2023/04/06 04:35:13;;;;;;;13.30;11.65;;;;;;;-2.17;71.90;98510.94;4978213;28;20030;-76
2023/04/06 04:37:41;;;;;;;12.32;9.90;;;;;;;-2.08;71.30;98520.53;4975621;28;20077;-76
2023/04/06 04:40:07;;;;;;;14.68;11.60;;;;;;;-2.12;71.67;98508.63;4978282;28;20396;-75
2023/04/06 04:42:42;;;;;;;12.82;11.35;;;;;;;-2.20;71.56;98513.88;4983858;28;20017;-75
2023/04/06 04:45:14;;;;;;;20.13;12.15;;;;;;;-2.20;71.44;98524.41;4998255;28;20121;-75
2023/04/06 04:47:40;;;;;;;16.15;12.82;;;;;;;-2.17;71.64;98514.38;5014190;28;20050;-76
2023/04/06 04:50:07;;;;;;;16.90;11.73;;;;;;;-2.12;71.62;98525.28;5002295;28;20024;-76
2023/04/06 04:52:35;;;;;;;17.92;11.98;;;;;;;-2.17;71.73;98516.19;5019714;28;20034;-76
2023/04/06 04:55:20;;;;;;;19.52;11.82;;;;;;;-2.06;71.47;98521.19;4980634;28;20038;-76
2023/04/06 04:57:50;;;;;;;14.05;11.30;;;;;;;-2.07;70.26;98524.81;4978722;28;20034;-76
2023/04/06 05:00:20;;;;;;;13.43;11.48;;;;;;;-2.37;72.38;98534.03;4978444;28;20035;-76
2023/04/06 05:02:46;;;;;;;23.67;11.95;;;;;;;-2.20;72.07;98534.97;4978187;28;20054;-76
2023/04/06 05:05:19;;;;;;;12.73;11.38;;;;;;;-2.23;71.89;98530.81;4994382;28;20034;-76
2023/04/06 05:07:45;;;;;;;14.38;11.20;;;;;;;-2.11;71.54;98536.66;4977978;28;20097;-76
2023/04/06 05:10:19;;;;;;;11.93;10.15;;;;;;;-2.01;70.79;98534.75;4978759;28;20049;-76
2023/04/06 05:12:53;;;;;;;14.75;11.38;;;;;;;-2.08;71.05;98531.88;4985051;28;20034;-76
2023/04/06 05:15:18;;;;;;;12.80;10.98;;;;;;;-1.98;70.66;98530.97;5013309;28;20506;-76
2023/04/06 05:17:44;;;;;;;13.63;12.18;;;;;;;-2.06;71.00;98529.09;4981109;28;20021;-74
2023/04/06 05:20:13;;;;;;;13.52;12.13;;;;;;;-2.08;71.28;98536.34;4997295;28;20088;-74
2023/04/06 05:22:45;;;;;;;13.35;12.05;;;;;;;-2.03;71.05;98535.88;4988552;28;20034;-75
2023/04/06 05:25:11;;;;;;;14.23;12.82;;;;;;;-1.99;71.67;98543.34;4993622;28;20048;-74
2023/04/06 05:27:38;;;;;;;13.77;12.20;;;;;;;-1.85;70.63;98531.34;4961113;28;20118;-75
2023/04/06 05:30:09;;;;;;;17.55;13.07;;;;;;;-1.76;70.51;98544.44;4977502;28;20069;-74
2023/04/06 05:32:40;;;;;;;15.23;12.20;;;;;;;-1.71;70.16;98544.78;4993446;28;20034;-74
2023/04/06 05:35:05;;;;;;;15.43;12.65;;;;;;;-1.53;70.43;98547.31;4976769;28;20041;-75
2023/04/06 05:37:32;;;;;;;25.48;15.45;;;;;;;-1.43;69.98;98538.28;4993314;28;20476;-74
2023/04/06 05:39:58;;;;;;;23.17;16.77;;;;;;;-1.36;70.51;98545.56;4976920;28;20088;-74
2023/04/06 05:42:24;;;;;;;22.55;17.95;;;;;;;-1.19;70.11;98549.91;4993275;28;20030;-74
2023/04/06 05:44:52;;;;;;;18.35;16.60;;;;;;;-1.06;69.64;98544.97;4977069;28;20030;-75
2023/04/06 05:47:19;;;;;;;17.30;13.95;;;;;;;-1.01;69.84;98548.78;4977104;28;20113;-75
2023/04/06 05:49:50;;;;;;;17.65;14.95;;;;;;;-1.02;70.17;98535.72;4993092;28;20039;-74
2023/04/06 05:52:24;;;;;;;17.15;13.27;;;;;;;-0.82;70.08;98542.38;4992798;28;20041;-74
2023/04/06 05:54:50;;;;;;;15.13;13.43;;;;;;;-0.73;69.71;98551.94;4992662;28;20396;-75
2023/04/06 05:57:16;;;;;;;14.00;11.55;;;;;;;-0.42;69.09;98547.63;5000888;28;20055;-74
2023/04/06 05:59:42;;;;;;;14.95;11.32;;;;;;;-0.42;68.97;98544.19;4982260;28;20459;-74
2023/04/06 06:02:10;;;;;;;13.80;11.38;;;;;;;-0.50;69.37;98547.66;4985992;28;20116;-75
2023/04/06 06:04:40;;;;;;;13.10;11.80;;;;;;;-0.41;68.79;98551.09;5003379;28;20486;-74
2023/04/06 06:07:05;;;;;;;25.08;22.65;;;;;;;-0.45;70.50;98553.28;5001416;28;20026;-74
2023/04/06 06:09:36;;;;;;;27.85;25.05;;;;;;;-0.31;70.05;98557.91;4993952;28;20030;-74
2023/04/06 06:12:14;;;;;;;51.05;37.05;;;;;;;-0.37;70.89;98558.53;5002433;28;20045;-73
2023/04/06 06:14:39;;;;;;;93.43;62.30;;;;;;;-0.28;70.08;98557.53;5000945;28;20076;-74
2023/04/06 06:17:06;;;;;;;25.58;22.88;;;;;;;-0.12;69.19;98562.81;5007362;28;20030;-74
2023/04/06 06:19:31;;;;;;;30.52;27.55;;;;;;;-0.15;70.16;98565.81;4976348;28;20088;-74
2023/04/06 06:22:02;;;;;;;66.10;56.78;;;;;;;-0.22;69.67;98551.59;4976532;28;20068;-74
2023/04/06 06:24:28;;;;;;;65.85;47.45;;;;;;;0.12;67.95;98550.53;4967945;28;20065;-74
2023/04/06 06:26:54;;;;;;;25.27;22.38;;;;;;;0.04;69.22;98561.13;4976314;28;20430;-74
2023/04/06 06:29:23;;;;;;;155.27;140.13;;;;;;;0.18;66.81;98553.31;4989505;28;20437;-73
2023/04/06 06:31:49;;;;;;;50.67;43.45;;;;;;;0.43;65.55;98562.00;5018647;28;20406;-74
2023/04/06 06:34:15;;;;;;;24.42;21.02;;;;;;;0.47;66.51;98555.34;4994416;28;20017;-74
2023/04/06 06:36:42;;;;;;;17.45;15.23;;;;;;;0.70;65.20;98543.03;5002030;28;20070;-74
2023/04/06 06:39:10;;;;;;;17.35;14.63;;;;;;;0.83;65.64;98564.47;4992071;28;20056;-75
2023/04/06 06:41:36;;;;;;;13.55;12.10;;;;;;;0.90;65.46;98560.13;4975757;28;20026;-74
2023/04/06 06:44:02;;;;;;;12.52;10.80;;;;;;;0.82;66.48;98556.72;4975424;28;20033;-74
2023/04/06 06:46:28;;;;;;;11.73;9.77;;;;;;;0.78;65.79;98553.56;4974744;28;20034;-74
2023/04/06 06:48:53;;;;;;;11.52;10.13;;;;;;;0.83;66.10;98558.34;4991790;28;20068;-74
2023/04/06 06:51:18;;;;;;;9.20;7.80;;;;;;;0.99;63.74;98558.25;4975680;28;20034;-74
2023/04/06 06:53:44;;;;;;;9.40;8.40;;;;;;;1.20;62.71;98561.09;4996280;28;20022;-73
2023/04/06 06:56:10;;;;;;;11.73;8.80;;;;;;;1.28;61.77;98561.06;4996912;28;20396;-74
2023/04/06 06:58:35;;;;;;;9.15;8.13;;;;;;;1.27;62.48;98562.88;4976155;28;20031;-76
2023/04/06 07:01:01;;;;;;;8.77;7.95;;;;;;;1.52;63.73;98560.03;4992004;28;20121;-74
2023/04/06 07:03:28;;;;;;;12.15;10.10;;;;;;;1.63;64.19;98559.63;4983703;28;20028;-75
2023/04/06 07:05:54;;;;;;;10.35;9.02;;;;;;;1.76;64.42;98567.78;5008648;28;20029;-73
2023/04/06 07:08:22;;;;;;;10.50;9.13;;;;;;;1.86;63.97;98560.41;4998421;28;20023;-72
2023/04/06 07:10:50;;;;;;;10.05;9.02;;;;;;;2.04;64.25;98558.22;4988843;28;20061;-72
2023/04/06 07:13:23;;;;;;;10.32;9.25;;;;;;;2.02;64.24;98558.41;5003223;28;20022;-72
2023/04/06 07:15:50;;;;;;;9.30;8.30;;;;;;;2.19;60.52;98553.75;4975475;28;20077;-73
2023/04/06 07:18:16;;;;;;;11.70;9.32;;;;;;;2.24;62.76;98561.97;4989178;28;20475;-72
2023/04/06 07:20:42;;;;;;;11.10;8.50;;;;;;;2.05;61.58;98559.88;5003480;28;20030;-72
2023/04/06 07:23:07;;;;;;;11.27;8.60;;;;;;;2.09;61.89;98558.50;4993969;28;20026;-72
2023/04/06 07:25:33;;;;;;;11.70;8.63;;;;;;;2.28;61.48;98555.31;4998726;28;20072;-72
2023/04/06 07:27:58;;;;;;;9.80;7.95;;;;;;;2.73;60.20;98560.41;4997207;28;20061;-72
2023/04/06 07:30:27;;;;;;;11.50;8.80;;;;;;;2.91;59.82;98551.22;4974964;28;20034;-74
2023/04/06 07:32:55;;;;;;;9.32;7.85;;;;;;;3.41;58.85;98561.75;4985677;28;20033;-72
2023/04/06 07:35:26;;;;;;;9.77;7.07;;;;;;;3.58;57.53;98559.66;5000380;28;20096;-72
2023/04/06 07:37:53;;;;;;;10.20;7.15;;;;;;;3.68;55.64;98558.34;4979729;28;20026;-72
2023/04/06 07:40:19;;;;;;;10.65;7.90;;;;;;;3.77;55.92;98551.03;4983250;28;20056;-72
2023/04/06 07:42:45;;;;;;;8.18;7.30;;;;;;;4.06;56.09;98562.31;4991189;28;20411;-72
2023/04/06 07:45:11;;;;;;;10.73;7.70;;;;;;;4.31;57.28;98553.88;4963521;28;20113;-72
2023/04/06 07:47:36;;;;;;;8.45;7.45;;;;;;;4.26;54.29;98541.16;4974859;28;20500;-72
2023/04/06 07:50:02;;;;;;;8.18;7.32;;;;;;;4.42;55.51;98546.16;4990553;28;20484;-75
2023/04/06 07:52:28;;;;;;;8.93;7.53;;;;;;;4.77;53.71;98554.94;4987587;28;20248;-73
2023/04/06 07:54:54;;;;;;;10.50;8.02;;;;;;;4.89;55.37;98532.03;4994327;28;20030;-72
2023/04/06 07:57:19;;;;;;;8.63;7.40;;;;;;;5.08;51.96;98544.59;5009378;28;20034;-72
2023/04/06 07:59:45;;;;;;;9.90;7.07;;;;;;;5.00;51.55;98543.94;4999883;28;20030;-72
2023/04/06 08:02:10;;;;;;;9.48;7.50;;;;;;;5.11;50.36;98546.84;4997332;28;20049;-72
2023/04/06 08:04:36;;;;;;;9.88;8.07;;;;;;;5.22;51.74;98548.13;5010492;28;20022;-72
2023/04/06 08:07:01;;;;;;;9.18;7.65;;;;;;;5.41;49.59;98547.34;4997273;28;20492;-72
2023/04/06 08:09:27;;;;;;;12.38;9.45;;;;;;;5.41;49.54;98550.03;5003470;28;20022;-73
2023/04/06 08:11:52;;;;;;;10.05;8.35;;;;;;;5.41;49.10;98542.81;5004367;28;20060;-72
2023/04/06 08:14:18;;;;;;;9.82;7.82;;;;;;;5.42;48.46;98539.13;4999176;28;20049;-71
2023/04/06 08:16:43;;;;;;;10.43;8.25;;;;;;;5.70;49.88;98546.13;4992649;28;20038;-72
2023/04/06 08:19:09;;;;;;;10.25;8.18;;;;;;;5.82;49.36;98549.84;4999105;28;20030;-72
2023/04/06 08:21:35;;;;;;;9.40;7.93;;;;;;;5.92;49.17;98550.31;4997369;28;20034;-72
2023/04/06 08:24:01;;;;;;;12.45;8.45;;;;;;;6.00;48.89;98548.22;5003197;28;20099;-73
2023/04/06 08:26:26;;;;;;;10.60;8.20;;;;;;;5.95;47.30;98552.56;5005806;28;20064;-72
2023/04/06 08:28:52;;;;;;;10.32;7.90;;;;;;;6.12;47.76;98551.09;4986029;28;20022;-72
2023/04/06 08:31:17;;;;;;;9.43;8.05;;;;;;;6.13;48.51;98544.75;4987592;28;20402;-73
2023/04/06 08:33:43;;;;;;;11.25;8.73;;;;;;;6.23;48.08;98542.47;4999598;28;20042;-73
2023/04/06 08:36:10;;;;;;;9.80;8.65;;;;;;;6.18;47.71;98544.94;4980608;28;20038;-72
2023/04/06 08:38:35;;;;;;;8.95;8.05;;;;;;;6.47;48.21;98547.13;5011172;28;20100;-72
2023/04/06 08:41:07;;;;;;;9.52;8.63;;;;;;;6.35;46.27;98535.44;5011151;28;20620;-73
2023/04/06 08:43:33;;;;;;;12.52;8.50;;;;;;;6.61;48.05;98534.53;5009909;28;20073;-73
2023/04/06 08:45:59;;;;;;;12.40;8.63;;;;;;;6.47;47.30;98532.94;5010183;28;20666;-72
2023/04/06 08:48:25;;;;;;;10.13;8.40;;;;;;;6.67;47.59;98537.22;4985549;28;20042;-72
2023/04/06 08:50:50;;;;;;;10.07;9.05;;;;;;;6.84;45.69;98534.84;4990435;28;20053;-72
2023/04/06 08:53:16;;;;;;;11.80;8.52;;;;;;;7.13;47.97;98538.84;4990418;28;20472;-73
2023/04/06 08:55:42;;;;;;;10.95;8.38;;;;;;;6.89;44.90;98532.38;4990354;28;20394;-72
2023/04/06 08:58:08;;;;;;;9.73;8.48;;;;;;;7.23;43.97;98539.22;4998481;28;20121;-72
2023/04/06 09:00:38;;;;;;;12.32;8.85;;;;;;;7.24;43.56;98538.16;4997248;28;20041;-72
2023/04/06 09:03:03;;;;;;;9.68;8.68;;;;;;;7.38;45.42;98526.34;4993834;28;20053;-73
2023/04/06 09:05:29;;;;;;;12.30;9.02;;;;;;;7.30;43.37;98540.84;4993824;28;20030;-73
2023/04/06 09:07:55;;;;;;;9.20;8.10;;;;;;;7.44;43.55;98537.03;4993793;28;20030;-72
2023/04/06 09:10:20;;;;;;;13.48;9.27;;;;;;;7.68;43.95;98532.72;4988740;28;20050;-72
2023/04/06 09:12:46;;;;;;;11.02;8.85;;;;;;;7.26;42.62;98533.44;4993753;28;20113;-72
2023/04/06 09:15:19;;;;;;;10.82;8.50;;;;;;;7.73;44.78;98532.91;5008962;28;20025;-72
2023/04/06 09:17:46;;;;;;;11.23;9.38;;;;;;;7.97;43.81;98537.47;4997007;28;20411;-73
2023/04/06 09:20:12;;;;;;;10.82;9.32;;;;;;;7.55;41.65;98535.50;4996985;28;20030;-73
2023/04/06 09:22:38;;;;;;;11.98;9.10;;;;;;;7.59;40.41;98531.34;4996679;28;20030;-72
2023/04/06 09:25:04;;;;;;;11.27;9.45;;;;;;;7.62;43.56;98530.94;4993144;28;20034;-72
2023/04/06 09:27:34;;;;;;;13.77;10.25;;;;;;;8.03;43.24;98535.75;4993583;28;20100;-72
2023/04/06 09:30:07;;;;;;;12.18;9.23;;;;;;;7.85;41.67;98522.28;4993307;28;20101;-72
2023/04/06 09:32:45;;;;;;;11.52;9.65;;;;;;;7.92;43.59;98531.94;4993430;28;20037;-72
2023/04/06 09:35:11;;;;;;;11.18;9.98;;;;;;;8.33;42.23;98531.41;4993244;28;20084;-72
2023/04/06 09:37:36;;;;;;;12.00;9.85;;;;;;;8.07;41.69;98526.25;5006152;28;20028;-73
2023/04/06 09:40:03;;;;;;;11.88;9.52;;;;;;;8.11;42.43;98522.91;4993476;28;20105;-73
2023/04/06 09:42:28;;;;;;;12.20;8.60;;;;;;;8.54;42.20;98516.72;4993247;28;20117;-72
2023/04/06 09:44:54;;;;;;;11.90;8.93;;;;;;;8.33;39.82;98504.56;4994030;28;20097;-72
2023/04/06 09:47:22;;;;;;;10.80;9.27;;;;;;;8.31;41.15;98507.44;4993194;28;20109;-73
2023/04/06 09:49:50;;;;;;;12.90;9.05;;;;;;;8.21;42.19;98514.34;5001339;28;20103;-72
2023/04/06 09:52:16;;;;;;;14.57;10.02;;;;;;;8.48;42.22;98512.22;4998858;28;20471;-72
2023/04/06 09:54:43;;;;;;;12.43;9.15;;;;;;;8.66;40.37;98509.56;4976530;28;20037;-72
2023/04/06 09:57:19;;;;;;;9.90;8.80;;;;;;;8.76;41.60;98510.66;4992855;28;20057;-72
2023/04/06 10:00:10;;;;;;;10.38;9.20;;;;;;;8.97;40.86;98507.50;5001479;28;20376;-72
2023/04/06 10:02:55;;;;;;;11.13;9.20;;;;;;;8.80;40.11;98505.66;4993792;28;20173;-71
2023/04/06 10:05:32;;;;;;;14.68;9.52;;;;;;;8.91;41.04;98504.91;5004764;28;20034;-73
2023/04/06 10:08:00;;;;;;;12.38;9.80;;;;;;;9.07;39.70;98501.59;5002840;28;20502;-73
2023/04/06 10:10:26;;;;;;;12.27;9.77;;;;;;;8.81;38.29;98501.94;5009195;28;20049;-72
2023/04/06 10:12:51;;;;;;;10.27;9.20;;;;;;;9.05;39.89;98503.69;4993093;28;20495;-73
2023/04/06 10:15:17;;;;;;;12.23;9.30;;;;;;;9.26;38.88;98497.81;4988489;28;20018;-73
2023/04/06 10:17:43;;;;;;;11.30;9.10;;;;;;;9.30;41.43;98496.31;4982127;28;20103;-73
2023/04/06 10:20:12;;;;;;;13.80;9.50;;;;;;;9.49;41.07;98491.69;4992450;28;20034;-73
2023/04/06 10:22:42;;;;;;;13.57;9.50;;;;;;;9.13;39.35;98495.31;4979465;28;20460;-73
2023/04/06 10:25:08;;;;;;;11.65;9.60;;;;;;;8.38;39.38;98485.09;4992110;28;20042;-73
2023/04/06 10:27:35;;;;;;;11.68;8.90;;;;;;;8.73;38.51;98489.63;4983419;28;20084;-73
2023/04/06 10:30:05;;;;;;;12.43;9.60;;;;;;;8.84;39.03;98490.75;4989092;28;20081;-74
2023/04/06 10:32:40;;;;;;;10.93;8.52;;;;;;;8.74;41.00;98485.09;5003673;28;20403;-72
2023/04/06 10:35:07;;;;;;;12.52;9.35;;;;;;;9.27;40.79;98483.31;5012810;28;20029;-74
2023/04/06 10:37:52;;;;;;;10.45;9.35;;;;;;;9.45;39.70;98485.13;4975747;28;20022;-74
2023/04/06 10:40:18;;;;;;;11.13;8.88;;;;;;;8.91;36.65;98486.13;4992214;28;20038;-75
2023/04/06 10:42:44;;;;;;;9.95;8.63;;;;;;;9.08;37.24;98487.09;4992127;28;20030;-75
2023/04/06 10:45:19;;;;;;;10.45;8.77;;;;;;;9.95;38.98;98485.56;4984599;28;20037;-75
2023/04/06 10:47:45;;;;;;;8.93;7.95;;;;;;;9.42;35.85;98478.34;5017768;28;20036;-75
2023/04/06 10:50:14;;;;;;;12.13;9.48;;;;;;;9.19;38.89;98483.66;4991963;28;20030;-75
2023/04/06 10:52:40;;;;;;;9.43;8.40;;;;;;;9.42;38.89;98477.53;4991827;28;20042;-75
2023/04/06 10:55:09;;;;;;;9.60;7.78;;;;;;;9.63;36.72;98472.44;4959271;28;20022;-75
2023/04/06 10:57:36;;;;;;;11.00;8.80;;;;;;;9.83;38.45;98463.19;4975922;28;20037;-75
2023/04/06 11:00:01;;;;;;;8.95;7.70;;;;;;;9.75;37.21;98467.88;4991907;28;20403;-75
2023/04/06 11:02:27;;;;;;;9.82;8.13;;;;;;;9.66;35.07;98457.72;4991648;28;20129;-75
2023/04/06 11:04:57;;;;;;;8.98;7.80;;;;;;;9.41;33.74;98465.13;4975201;28;20028;-75
2023/04/06 11:07:26;;;;;;;10.35;8.85;;;;;;;9.36;34.52;98457.75;4975510;28;20038;-74
2023/04/06 11:09:52;;;;;;;9.63;8.65;;;;;;;9.60;35.19;98459.44;4975562;28;20120;-75
2023/04/06 11:12:25;;;;;;;9.70;8.30;;;;;;;9.58;37.06;98466.94;4991566;28;20097;-74
2023/04/06 11:15:03;;;;;;;13.02;8.82;;;;;;;10.25;36.34;98457.50;5005252;28;20436;-75
2023/04/06 11:17:29;;;;;;;10.57;7.97;;;;;;;10.26;37.21;98456.47;5012351;28;20073;-74
2023/04/06 11:19:55;;;;;;;9.50;8.55;;;;;;;10.33;35.29;98454.47;4996878;28;20057;-74
2023/04/06 11:22:21;;;;;;;9.85;8.15;;;;;;;10.74;36.01;98444.50;5001880;28;20033;-74
2023/04/06 11:24:46;;;;;;;9.70;7.78;;;;;;;10.38;31.97;98443.00;5009692;28;20100;-74
2023/04/06 11:27:12;;;;;;;9.20;7.70;;;;;;;10.35;32.19;98435.38;5003944;28;20042;-75
2023/04/06 11:29:38;;;;;;;9.98;8.07;;;;;;;10.05;32.65;98434.69;5005045;28;20022;-74